Briefing drone pour Premery

Rechercher une autre localisation

Conditions de vol :


Nous sommes le : Mardi 22 juin 2021
Il est 07:52 UTC (09:53 LT)

Lever de soleil : 03:25 UTC (05:25 LT)
Coucher de soleil : 20:12 UTC (22:12 LT)

Météo

L'essentiel des conditions de vol

VIGILANCE MÉTÉO FRANCE - Nièvre (58)
Vigilance Jaune : Orages
CARTES DES FRONTS
METAR de LFQG
LFQG 220730Z AUTO 24004KT 210V280 9999 BKN007/// BKN056/// BKN082/// ///TCU 16/15 Q1013

Date d'émission: 22/06/2021
Heure d'émission: 07:30 UTC
Vent: 240° (variable du 210° au 280°) pour 4 KT (7 km/h)
Visibilité horizontale: > 10 km
Plafond :
- Nuages morcelés à 700ft (213m)
- Nuages morcelés à 5600ft (1707m)
- Nuages morcelés à 8200ft (2499m)
Température: 16 °C
Point de rosée: 15 °C
Humidité: 94%
Pression (QNH): 1013 hPa
Prévision 24h pour Nevers (15 km)
Vent : 287° pour 0 KT (2 km/h)
Temperature Maxi: 12 °C
Temperature Min: 12 °C
Humidité : 97%
Condition : Peu nuageux



Warning: count(): Parameter must be an array or an object that implements Countable in /homepages/6/d509196549/htdocs/droneoxygene/briefing.php on line 743
WEBCAM POUR PREMERY

Réglementation

Voler en sécurité

CARTES AERONAUTIQUE 1/500.000
CARTES VAC (LFQG)
SUP AIP




Chargement des AIP...
NOTAM (PREMERY + Terrain à proximité / FIR )




Chargement des NOTAMS...
CONTACT PREFECTURE 58


Avertissement : Les données mises à disposition sont indicatives. Oxygène Drone ne pourra être tenu responsable de dégâts causés aux biens et aux personnes.